sensor_id;sensor_type;location;lat;lon;timestamp;P1;durP1;ratioP1;P2;durP2;ratioP2
58446;SDS011;44240;51.840;7.258;2023-12-14T00:02:14;22.83;;;9.93;;
58446;SDS011;44240;51.840;7.258;2023-12-14T00:04:41;23.05;;;10.30;;
58446;SDS011;44240;51.840;7.258;2023-12-14T00:07:08;16.95;;;8.88;;
58446;SDS011;44240;51.840;7.258;2023-12-14T00:09:34;15.70;;;7.53;;
58446;SDS011;44240;51.840;7.258;2023-12-14T00:12:01;18.17;;;8.90;;
58446;SDS011;44240;51.840;7.258;2023-12-14T00:14:28;14.40;;;8.13;;
58446;SDS011;44240;51.840;7.258;2023-12-14T00:16:55;16.33;;;8.50;;
58446;SDS011;44240;51.840;7.258;2023-12-14T00:19:25;16.55;;;8.30;;
58446;SDS011;44240;51.840;7.258;2023-12-14T00:21:51;18.17;;;8.75;;
58446;SDS011;44240;51.840;7.258;2023-12-14T00:24:18;15.90;;;8.77;;
58446;SDS011;44240;51.840;7.258;2023-12-14T00:26:45;14.95;;;8.32;;
58446;SDS011;44240;51.840;7.258;2023-12-14T00:29:12;17.50;;;8.70;;
58446;SDS011;44240;51.840;7.258;2023-12-14T00:31:38;20.58;;;9.38;;
58446;SDS011;44240;51.840;7.258;2023-12-14T00:34:05;14.93;;;8.50;;
58446;SDS011;44240;51.840;7.258;2023-12-14T00:36:32;14.18;;;7.65;;
58446;SDS011;44240;51.840;7.258;2023-12-14T00:38:59;15.88;;;8.68;;
58446;SDS011;44240;51.840;7.258;2023-12-14T00:41:26;12.40;;;7.35;;
58446;SDS011;44240;51.840;7.258;2023-12-14T00:43:53;11.90;;;7.28;;
58446;SDS011;44240;51.840;7.258;2023-12-14T00:46:20;13.70;;;7.53;;
58446;SDS011;44240;51.840;7.258;2023-12-14T00:48:46;17.00;;;8.13;;
58446;SDS011;44240;51.840;7.258;2023-12-14T00:51:13;12.73;;;7.32;;
58446;SDS011;44240;51.840;7.258;2023-12-14T00:53:40;20.27;;;8.60;;
58446;SDS011;44240;51.840;7.258;2023-12-14T00:56:07;16.90;;;8.05;;
58446;SDS011;44240;51.840;7.258;2023-12-14T00:58:35;17.60;;;8.40;;
58446;SDS011;44240;51.840;7.258;2023-12-14T01:01:02;14.15;;;7.63;;
58446;SDS011;44240;51.840;7.258;2023-12-14T01:03:28;16.08;;;8.70;;
58446;SDS011;44240;51.840;7.258;2023-12-14T01:05:55;15.65;;;7.80;;
58446;SDS011;44240;51.840;7.258;2023-12-14T01:08:22;15.82;;;7.95;;
58446;SDS011;44240;51.840;7.258;2023-12-14T01:10:49;17.25;;;8.18;;
58446;SDS011;44240;51.840;7.258;2023-12-14T01:13:16;16.33;;;8.15;;
58446;SDS011;44240;51.840;7.258;2023-12-14T01:15:43;15.85;;;7.63;;
58446;SDS011;44240;51.840;7.258;2023-12-14T01:18:09;15.60;;;7.65;;
58446;SDS011;44240;51.840;7.258;2023-12-14T01:20:37;16.60;;;7.10;;
58446;SDS011;44240;51.840;7.258;2023-12-14T01:23:04;15.85;;;7.35;;
58446;SDS011;44240;51.840;7.258;2023-12-14T01:25:31;17.08;;;7.82;;
58446;SDS011;44240;51.840;7.258;2023-12-14T01:27:58;16.40;;;7.53;;
58446;SDS011;44240;51.840;7.258;2023-12-14T01:30:26;16.02;;;7.85;;
58446;SDS011;44240;51.840;7.258;2023-12-14T01:32:53;13.63;;;7.65;;
58446;SDS011;44240;51.840;7.258;2023-12-14T01:35:19;15.68;;;7.78;;
58446;SDS011;44240;51.840;7.258;2023-12-14T01:37:46;15.15;;;8.10;;
58446;SDS011;44240;51.840;7.258;2023-12-14T01:40:13;15.25;;;7.80;;
58446;SDS011;44240;51.840;7.258;2023-12-14T01:42:42;14.38;;;7.68;;
58446;SDS011;44240;51.840;7.258;2023-12-14T01:45:09;14.70;;;7.13;;
58446;SDS011;44240;51.840;7.258;2023-12-14T01:47:36;14.68;;;7.80;;
58446;SDS011;44240;51.840;7.258;2023-12-14T01:50:02;19.80;;;8.45;;
58446;SDS011;44240;51.840;7.258;2023-12-14T01:52:29;16.08;;;8.38;;
58446;SDS011;44240;51.840;7.258;2023-12-14T01:54:56;18.13;;;8.57;;
58446;SDS011;44240;51.840;7.258;2023-12-14T01:57:25;15.77;;;8.35;;
58446;SDS011;44240;51.840;7.258;2023-12-14T01:59:52;21.23;;;9.25;;
58446;SDS011;44240;51.840;7.258;2023-12-14T02:02:18;19.90;;;9.93;;
58446;SDS011;44240;51.840;7.258;2023-12-14T02:04:45;20.45;;;9.32;;
58446;SDS011;44240;51.840;7.258;2023-12-14T02:07:12;18.60;;;8.82;;
58446;SDS011;44240;51.840;7.258;2023-12-14T02:09:39;18.42;;;9.20;;
58446;SDS011;44240;51.840;7.258;2023-12-14T02:12:06;21.65;;;8.77;;
58446;SDS011;44240;51.840;7.258;2023-12-14T02:14:32;16.35;;;8.38;;
58446;SDS011;44240;51.840;7.258;2023-12-14T02:16:59;15.57;;;8.30;;
58446;SDS011;44240;51.840;7.258;2023-12-14T02:19:26;19.45;;;9.77;;
58446;SDS011;44240;51.840;7.258;2023-12-14T02:21:52;17.40;;;8.60;;
58446;SDS011;44240;51.840;7.258;2023-12-14T02:24:19;16.15;;;8.15;;
58446;SDS011;44240;51.840;7.258;2023-12-14T02:26:46;19.42;;;9.20;;
58446;SDS011;44240;51.840;7.258;2023-12-14T02:29:28;18.48;;;8.80;;
58446;SDS011;44240;51.840;7.258;2023-12-14T02:31:55;17.10;;;8.18;;
58446;SDS011;44240;51.840;7.258;2023-12-14T02:34:22;14.23;;;7.72;;
58446;SDS011;44240;51.840;7.258;2023-12-14T02:36:51;18.30;;;7.75;;
58446;SDS011;44240;51.840;7.258;2023-12-14T02:39:18;18.38;;;7.15;;
58446;SDS011;44240;51.840;7.258;2023-12-14T02:41:44;14.95;;;7.10;;
58446;SDS011;44240;51.840;7.258;2023-12-14T02:44:11;15.40;;;7.78;;
58446;SDS011;44240;51.840;7.258;2023-12-14T02:46:38;14.48;;;6.97;;
58446;SDS011;44240;51.840;7.258;2023-12-14T02:49:05;14.63;;;7.30;;
58446;SDS011;44240;51.840;7.258;2023-12-14T02:51:31;12.95;;;7.10;;
58446;SDS011;44240;51.840;7.258;2023-12-14T02:53:58;15.32;;;6.68;;
58446;SDS011;44240;51.840;7.258;2023-12-14T02:56:25;13.77;;;6.63;;
58446;SDS011;44240;51.840;7.258;2023-12-14T02:58:51;14.35;;;6.53;;
58446;SDS011;44240;51.840;7.258;2023-12-14T03:01:20;11.95;;;6.43;;
58446;SDS011;44240;51.840;7.258;2023-12-14T03:03:47;13.60;;;6.32;;
58446;SDS011;44240;51.840;7.258;2023-12-14T03:06:14;13.32;;;6.70;;
58446;SDS011;44240;51.840;7.258;2023-12-14T03:08:41;13.02;;;6.05;;
58446;SDS011;44240;51.840;7.258;2023-12-14T03:11:08;13.43;;;6.07;;
58446;SDS011;44240;51.840;7.258;2023-12-14T03:13:34;12.20;;;6.47;;
58446;SDS011;44240;51.840;7.258;2023-12-14T03:16:01;11.18;;;6.28;;
58446;SDS011;44240;51.840;7.258;2023-12-14T03:18:28;12.30;;;6.25;;
58446;SDS011;44240;51.840;7.258;2023-12-14T03:20:55;12.05;;;6.18;;
58446;SDS011;44240;51.840;7.258;2023-12-14T03:23:21;11.90;;;5.97;;
58446;SDS011;44240;51.840;7.258;2023-12-14T03:25:48;13.55;;;6.75;;
58446;SDS011;44240;51.840;7.258;2023-12-14T03:28:15;14.63;;;7.00;;
58446;SDS011;44240;51.840;7.258;2023-12-14T03:30:42;13.30;;;7.50;;
58446;SDS011;44240;51.840;7.258;2023-12-14T03:33:08;15.55;;;7.55;;
58446;SDS011;44240;51.840;7.258;2023-12-14T03:35:35;15.23;;;7.43;;
58446;SDS011;44240;51.840;7.258;2023-12-14T03:38:02;16.48;;;7.90;;
58446;SDS011;44240;51.840;7.258;2023-12-14T03:40:29;18.55;;;9.73;;
58446;SDS011;44240;51.840;7.258;2023-12-14T03:42:56;15.25;;;7.85;;
58446;SDS011;44240;51.840;7.258;2023-12-14T03:45:23;15.32;;;8.35;;
58446;SDS011;44240;51.840;7.258;2023-12-14T03:47:49;13.23;;;7.70;;
58446;SDS011;44240;51.840;7.258;2023-12-14T03:50:16;12.75;;;6.65;;
58446;SDS011;44240;51.840;7.258;2023-12-14T03:52:43;11.60;;;6.50;;
58446;SDS011;44240;51.840;7.258;2023-12-14T03:55:11;12.18;;;7.15;;
58446;SDS011;44240;51.840;7.258;2023-12-14T03:57:38;13.30;;;7.13;;
58446;SDS011;44240;51.840;7.258;2023-12-14T04:00:05;12.77;;;6.53;;
58446;SDS011;44240;51.840;7.258;2023-12-14T04:02:35;12.93;;;6.63;;
58446;SDS011;44240;51.840;7.258;2023-12-14T04:05:02;13.20;;;7.13;;
58446;SDS011;44240;51.840;7.258;2023-12-14T04:07:29;11.98;;;6.43;;
58446;SDS011;44240;51.840;7.258;2023-12-14T04:09:56;15.93;;;6.90;;
58446;SDS011;44240;51.840;7.258;2023-12-14T04:12:23;14.00;;;7.03;;
58446;SDS011;44240;51.840;7.258;2023-12-14T04:14:50;15.45;;;7.22;;
58446;SDS011;44240;51.840;7.258;2023-12-14T04:17:17;14.50;;;8.10;;
58446;SDS011;44240;51.840;7.258;2023-12-14T04:19:44;16.08;;;7.78;;
58446;SDS011;44240;51.840;7.258;2023-12-14T04:22:10;15.95;;;7.22;;
58446;SDS011;44240;51.840;7.258;2023-12-14T04:24:37;13.60;;;7.32;;
58446;SDS011;44240;51.840;7.258;2023-12-14T04:27:04;15.20;;;7.85;;
58446;SDS011;44240;51.840;7.258;2023-12-14T04:29:31;13.68;;;7.93;;
58446;SDS011;44240;51.840;7.258;2023-12-14T04:31:57;15.65;;;7.00;;
58446;SDS011;44240;51.840;7.258;2023-12-14T04:34:24;13.10;;;7.53;;
58446;SDS011;44240;51.840;7.258;2023-12-14T04:36:51;13.52;;;7.57;;
58446;SDS011;44240;51.840;7.258;2023-12-14T04:39:19;15.35;;;7.53;;
58446;SDS011;44240;51.840;7.258;2023-12-14T04:41:45;14.35;;;7.75;;
58446;SDS011;44240;51.840;7.258;2023-12-14T04:44:12;15.00;;;7.70;;
58446;SDS011;44240;51.840;7.258;2023-12-14T04:46:39;12.48;;;7.25;;
58446;SDS011;44240;51.840;7.258;2023-12-14T04:49:06;15.02;;;7.68;;
58446;SDS011;44240;51.840;7.258;2023-12-14T04:51:32;14.90;;;7.40;;
58446;SDS011;44240;51.840;7.258;2023-12-14T04:53:59;14.73;;;7.18;;
58446;SDS011;44240;51.840;7.258;2023-12-14T04:56:26;13.27;;;6.93;;
58446;SDS011;44240;51.840;7.258;2023-12-14T04:58:53;13.00;;;7.10;;
58446;SDS011;44240;51.840;7.258;2023-12-14T05:01:19;14.57;;;7.22;;
58446;SDS011;44240;51.840;7.258;2023-12-14T05:03:46;13.85;;;6.88;;
58446;SDS011;44240;51.840;7.258;2023-12-14T05:06:13;12.65;;;6.93;;
58446;SDS011;44240;51.840;7.258;2023-12-14T05:08:40;12.75;;;7.22;;
58446;SDS011;44240;51.840;7.258;2023-12-14T05:11:07;11.48;;;6.47;;
58446;SDS011;44240;51.840;7.258;2023-12-14T05:13:33;11.65;;;6.50;;
58446;SDS011;44240;51.840;7.258;2023-12-14T05:16:01;11.35;;;6.40;;
58446;SDS011;44240;51.840;7.258;2023-12-14T05:18:28;13.45;;;7.32;;
58446;SDS011;44240;51.840;7.258;2023-12-14T05:20:55;14.75;;;7.10;;
58446;SDS011;44240;51.840;7.258;2023-12-14T05:23:22;14.00;;;7.30;;
58446;SDS011;44240;51.840;7.258;2023-12-14T05:25:50;13.77;;;7.13;;
58446;SDS011;44240;51.840;7.258;2023-12-14T05:28:17;14.30;;;7.05;;
58446;SDS011;44240;51.840;7.258;2023-12-14T05:30:43;11.48;;;6.78;;
58446;SDS011;44240;51.840;7.258;2023-12-14T05:33:10;13.68;;;6.93;;
58446;SDS011;44240;51.840;7.258;2023-12-14T05:35:38;10.93;;;6.65;;
58446;SDS011;44240;51.840;7.258;2023-12-14T05:38:05;10.65;;;5.75;;
58446;SDS011;44240;51.840;7.258;2023-12-14T05:40:32;10.18;;;6.35;;
58446;SDS011;44240;51.840;7.258;2023-12-14T05:42:59;12.23;;;5.75;;
58446;SDS011;44240;51.840;7.258;2023-12-14T05:45:26;11.43;;;6.40;;
58446;SDS011;44240;51.840;7.258;2023-12-14T05:47:53;13.68;;;6.47;;
58446;SDS011;44240;51.840;7.258;2023-12-14T05:50:20;11.25;;;6.47;;
58446;SDS011;44240;51.840;7.258;2023-12-14T05:52:48;10.85;;;6.43;;
58446;SDS011;44240;51.840;7.258;2023-12-14T05:55:15;10.55;;;6.07;;
58446;SDS011;44240;51.840;7.258;2023-12-14T05:57:44;11.63;;;6.18;;
58446;SDS011;44240;51.840;7.258;2023-12-14T06:00:12;11.07;;;5.95;;
58446;SDS011;44240;51.840;7.258;2023-12-14T06:02:38;11.75;;;6.18;;
58446;SDS011;44240;51.840;7.258;2023-12-14T06:05:06;12.13;;;6.03;;
58446;SDS011;44240;51.840;7.258;2023-12-14T06:07:34;12.48;;;6.10;;
58446;SDS011;44240;51.840;7.258;2023-12-14T06:10:01;11.50;;;6.20;;
58446;SDS011;44240;51.840;7.258;2023-12-14T06:12:27;10.20;;;6.25;;
58446;SDS011;44240;51.840;7.258;2023-12-14T06:14:54;13.90;;;6.82;;
58446;SDS011;44240;51.840;7.258;2023-12-14T06:17:21;14.38;;;6.85;;
58446;SDS011;44240;51.840;7.258;2023-12-14T06:19:48;11.10;;;6.22;;
58446;SDS011;44240;51.840;7.258;2023-12-14T06:22:15;12.57;;;6.68;;
58446;SDS011;44240;51.840;7.258;2023-12-14T06:24:41;11.90;;;6.40;;
58446;SDS011;44240;51.840;7.258;2023-12-14T06:27:08;12.13;;;6.97;;
58446;SDS011;44240;51.840;7.258;2023-12-14T06:29:35;10.88;;;5.80;;
58446;SDS011;44240;51.840;7.258;2023-12-14T06:32:02;12.85;;;7.65;;
58446;SDS011;44240;51.840;7.258;2023-12-14T06:34:29;15.07;;;7.43;;
58446;SDS011;44240;51.840;7.258;2023-12-14T06:36:55;14.50;;;7.53;;
58446;SDS011;44240;51.840;7.258;2023-12-14T06:39:24;15.80;;;8.68;;
58446;SDS011;44240;51.840;7.258;2023-12-14T06:41:54;16.38;;;8.38;;
58446;SDS011;44240;51.840;7.258;2023-12-14T06:44:22;16.80;;;8.13;;
58446;SDS011;44240;51.840;7.258;2023-12-14T06:46:51;16.80;;;8.55;;
58446;SDS011;44240;51.840;7.258;2023-12-14T06:49:18;15.85;;;7.85;;
58446;SDS011;44240;51.840;7.258;2023-12-14T06:51:44;13.82;;;7.70;;
58446;SDS011;44240;51.840;7.258;2023-12-14T06:54:11;14.43;;;7.40;;
58446;SDS011;44240;51.840;7.258;2023-12-14T06:56:38;18.00;;;9.43;;
58446;SDS011;44240;51.840;7.258;2023-12-14T06:59:05;17.63;;;9.68;;
58446;SDS011;44240;51.840;7.258;2023-12-14T07:01:32;16.35;;;8.98;;
58446;SDS011;44240;51.840;7.258;2023-12-14T07:03:58;17.08;;;8.82;;
58446;SDS011;44240;51.840;7.258;2023-12-14T07:06:25;18.33;;;8.60;;
58446;SDS011;44240;51.840;7.258;2023-12-14T07:08:54;17.77;;;9.60;;
58446;SDS011;44240;51.840;7.258;2023-12-14T07:11:21;17.65;;;9.77;;
58446;SDS011;44240;51.840;7.258;2023-12-14T07:13:48;18.23;;;9.77;;
58446;SDS011;44240;51.840;7.258;2023-12-14T07:16:14;16.10;;;8.73;;
58446;SDS011;44240;51.840;7.258;2023-12-14T07:18:43;18.38;;;9.32;;
58446;SDS011;44240;51.840;7.258;2023-12-14T07:21:11;19.90;;;10.40;;
58446;SDS011;44240;51.840;7.258;2023-12-14T07:23:37;20.35;;;10.07;;
58446;SDS011;44240;51.840;7.258;2023-12-14T07:26:04;18.73;;;9.73;;
58446;SDS011;44240;51.840;7.258;2023-12-14T07:28:33;22.60;;;10.70;;
58446;SDS011;44240;51.840;7.258;2023-12-14T07:31:00;22.42;;;11.05;;
58446;SDS011;44240;51.840;7.258;2023-12-14T07:33:27;19.90;;;10.25;;
58446;SDS011;44240;51.840;7.258;2023-12-14T07:35:54;21.33;;;10.48;;
58446;SDS011;44240;51.840;7.258;2023-12-14T07:38:21;21.83;;;11.13;;
58446;SDS011;44240;51.840;7.258;2023-12-14T07:40:48;20.70;;;10.32;;
58446;SDS011;44240;51.840;7.258;2023-12-14T07:43:16;22.13;;;11.40;;
58446;SDS011;44240;51.840;7.258;2023-12-14T07:45:43;23.02;;;11.07;;
58446;SDS011;44240;51.840;7.258;2023-12-14T07:48:10;21.08;;;10.27;;
58446;SDS011;44240;51.840;7.258;2023-12-14T07:50:37;23.05;;;11.48;;
58446;SDS011;44240;51.840;7.258;2023-12-14T07:53:04;25.33;;;11.60;;
58446;SDS011;44240;51.840;7.258;2023-12-14T07:55:31;22.30;;;10.93;;
58446;SDS011;44240;51.840;7.258;2023-12-14T07:57:58;26.67;;;12.23;;
58446;SDS011;44240;51.840;7.258;2023-12-14T08:00:24;26.33;;;11.75;;
58446;SDS011;44240;51.840;7.258;2023-12-14T08:02:51;23.98;;;12.30;;
58446;SDS011;44240;51.840;7.258;2023-12-14T08:05:18;25.63;;;12.85;;
58446;SDS011;44240;51.840;7.258;2023-12-14T08:07:45;21.75;;;10.93;;
58446;SDS011;44240;51.840;7.258;2023-12-14T08:10:12;23.80;;;11.75;;
58446;SDS011;44240;51.840;7.258;2023-12-14T08:12:39;20.65;;;9.00;;
58446;SDS011;44240;51.840;7.258;2023-12-14T08:15:05;26.38;;;10.70;;
58446;SDS011;44240;51.840;7.258;2023-12-14T08:17:34;20.92;;;12.02;;
58446;SDS011;44240;51.840;7.258;2023-12-14T08:20:01;20.98;;;9.90;;
58446;SDS011;44240;51.840;7.258;2023-12-14T08:22:30;19.92;;;9.32;;
58446;SDS011;44240;51.840;7.258;2023-12-14T08:24:58;22.13;;;10.55;;
58446;SDS011;44240;51.840;7.258;2023-12-14T08:27:24;23.80;;;11.68;;
58446;SDS011;44240;51.840;7.258;2023-12-14T08:29:51;25.08;;;10.45;;
58446;SDS011;44240;51.840;7.258;2023-12-14T08:32:18;19.00;;;10.27;;
58446;SDS011;44240;51.840;7.258;2023-12-14T08:34:45;23.25;;;10.93;;
58446;SDS011;44240;51.840;7.258;2023-12-14T08:37:12;21.02;;;10.18;;
58446;SDS011;44240;51.840;7.258;2023-12-14T08:39:39;24.58;;;11.50;;
58446;SDS011;44240;51.840;7.258;2023-12-14T08:42:06;23.95;;;10.93;;
58446;SDS011;44240;51.840;7.258;2023-12-14T08:44:33;18.73;;;10.35;;
58446;SDS011;44240;51.840;7.258;2023-12-14T08:46:59;24.88;;;11.95;;
58446;SDS011;44240;51.840;7.258;2023-12-14T08:49:26;21.25;;;10.70;;
58446;SDS011;44240;51.840;7.258;2023-12-14T08:51:53;23.73;;;11.05;;
58446;SDS011;44240;51.840;7.258;2023-12-14T08:54:20;24.13;;;11.75;;
58446;SDS011;44240;51.840;7.258;2023-12-14T08:56:46;25.60;;;12.00;;
58446;SDS011;44240;51.840;7.258;2023-12-14T08:59:13;25.50;;;12.23;;
58446;SDS011;44240;51.840;7.258;2023-12-14T09:01:40;24.75;;;11.82;;
58446;SDS011;44240;51.840;7.258;2023-12-14T09:04:07;24.25;;;12.45;;
58446;SDS011;44240;51.840;7.258;2023-12-14T09:06:34;21.63;;;11.27;;
58446;SDS011;44240;51.840;7.258;2023-12-14T09:09:01;25.30;;;11.93;;
58446;SDS011;44240;51.840;7.258;2023-12-14T09:11:28;25.50;;;11.77;;
58446;SDS011;44240;51.840;7.258;2023-12-14T09:13:56;22.58;;;11.10;;
58446;SDS011;44240;51.840;7.258;2023-12-14T09:16:23;24.65;;;11.55;;
58446;SDS011;44240;51.840;7.258;2023-12-14T09:18:50;24.15;;;10.93;;
58446;SDS011;44240;51.840;7.258;2023-12-14T09:21:16;22.95;;;10.70;;
58446;SDS011;44240;51.840;7.258;2023-12-14T09:23:46;25.77;;;11.82;;
58446;SDS011;44240;51.840;7.258;2023-12-14T09:26:14;26.02;;;12.57;;
58446;SDS011;44240;51.840;7.258;2023-12-14T09:28:41;20.95;;;11.23;;
58446;SDS011;44240;51.840;7.258;2023-12-14T09:31:08;23.80;;;11.10;;
58446;SDS011;44240;51.840;7.258;2023-12-14T09:33:35;25.02;;;11.13;;
58446;SDS011;44240;51.840;7.258;2023-12-14T09:36:02;21.70;;;11.18;;
58446;SDS011;44240;51.840;7.258;2023-12-14T09:38:30;24.50;;;10.88;;
58446;SDS011;44240;51.840;7.258;2023-12-14T09:40:56;26.48;;;11.98;;
58446;SDS011;44240;51.840;7.258;2023-12-14T09:43:23;21.98;;;10.93;;
58446;SDS011;44240;51.840;7.258;2023-12-14T09:45:50;20.73;;;9.50;;
58446;SDS011;44240;51.840;7.258;2023-12-14T09:48:18;20.58;;;10.32;;
58446;SDS011;44240;51.840;7.258;2023-12-14T09:50:46;23.85;;;11.82;;
58446;SDS011;44240;51.840;7.258;2023-12-14T09:53:13;19.88;;;10.40;;
58446;SDS011;44240;51.840;7.258;2023-12-14T09:55:40;18.90;;;9.15;;
58446;SDS011;44240;51.840;7.258;2023-12-14T09:58:07;20.40;;;9.13;;
58446;SDS011;44240;51.840;7.258;2023-12-14T10:00:36;18.60;;;9.23;;
58446;SDS011;44240;51.840;7.258;2023-12-14T10:05:48;17.23;;;8.77;;
58446;SDS011;44240;51.840;7.258;2023-12-14T10:08:16;17.92;;;9.07;;
58446;SDS011;44240;51.840;7.258;2023-12-14T10:10:44;17.23;;;8.80;;
58446;SDS011;44240;51.840;7.258;2023-12-14T10:13:12;19.48;;;9.13;;
58446;SDS011;44240;51.840;7.258;2023-12-14T10:15:43;16.50;;;8.32;;
58446;SDS011;44240;51.840;7.258;2023-12-14T10:18:10;17.38;;;9.63;;
58446;SDS011;44240;51.840;7.258;2023-12-14T10:20:37;17.88;;;10.13;;
58446;SDS011;44240;51.840;7.258;2023-12-14T10:23:05;16.80;;;8.35;;
58446;SDS011;44240;51.840;7.258;2023-12-14T10:25:33;18.25;;;9.23;;
58446;SDS011;44240;51.840;7.258;2023-12-14T10:28:02;17.40;;;8.80;;
58446;SDS011;44240;51.840;7.258;2023-12-14T10:30:29;16.15;;;8.60;;
58446;SDS011;44240;51.840;7.258;2023-12-14T10:32:59;16.33;;;7.72;;
58446;SDS011;44240;51.840;7.258;2023-12-14T10:35:26;16.90;;;8.88;;
58446;SDS011;44240;51.840;7.258;2023-12-14T10:37:53;17.33;;;8.63;;
58446;SDS011;44240;51.840;7.258;2023-12-14T10:40:24;15.82;;;7.82;;
58446;SDS011;44240;51.840;7.258;2023-12-14T10:42:52;18.00;;;7.68;;
58446;SDS011;44240;51.840;7.258;2023-12-14T10:45:21;16.17;;;8.25;;
58446;SDS011;44240;51.840;7.258;2023-12-14T10:47:52;15.13;;;8.23;;
58446;SDS011;44240;51.840;7.258;2023-12-14T10:50:20;19.48;;;9.88;;
58446;SDS011;44240;51.840;7.258;2023-12-14T10:52:47;18.05;;;9.43;;
58446;SDS011;44240;51.840;7.258;2023-12-14T10:55:21;17.23;;;9.13;;
58446;SDS011;44240;51.840;7.258;2023-12-14T10:57:52;17.25;;;9.90;;
58446;SDS011;44240;51.840;7.258;2023-12-14T11:00:19;17.13;;;8.48;;
58446;SDS011;44240;51.840;7.258;2023-12-14T11:02:46;15.85;;;8.23;;
58446;SDS011;44240;51.840;7.258;2023-12-14T11:05:14;15.98;;;8.10;;
58446;SDS011;44240;51.840;7.258;2023-12-14T11:07:43;14.32;;;7.40;;
58446;SDS011;44240;51.840;7.258;2023-12-14T11:10:11;16.27;;;7.10;;
58446;SDS011;44240;51.840;7.258;2023-12-14T11:12:49;14.70;;;8.35;;
58446;SDS011;44240;51.840;7.258;2023-12-14T11:15:23;17.98;;;7.82;;
58446;SDS011;44240;51.840;7.258;2023-12-14T11:20:57;15.02;;;8.02;;
58446;SDS011;44240;51.840;7.258;2023-12-14T11:25:53;13.38;;;7.90;;
58446;SDS011;44240;51.840;7.258;2023-12-14T11:28:28;16.17;;;7.50;;
58446;SDS011;44240;51.840;7.258;2023-12-14T11:30:56;14.38;;;7.85;;
58446;SDS011;44240;51.840;7.258;2023-12-14T11:33:23;14.13;;;7.70;;
58446;SDS011;44240;51.840;7.258;2023-12-14T11:35:51;16.25;;;7.93;;
58446;SDS011;44240;51.840;7.258;2023-12-14T11:38:19;16.05;;;8.50;;
58446;SDS011;44240;51.840;7.258;2023-12-14T11:40:48;17.00;;;9.38;;
58446;SDS011;44240;51.840;7.258;2023-12-14T11:43:16;18.10;;;9.57;;
58446;SDS011;44240;51.840;7.258;2023-12-14T11:45:46;17.85;;;9.77;;
58446;SDS011;44240;51.840;7.258;2023-12-14T11:48:14;18.95;;;8.90;;
58446;SDS011;44240;51.840;7.258;2023-12-14T11:50:41;19.52;;;10.43;;
58446;SDS011;44240;51.840;7.258;2023-12-14T11:53:10;18.33;;;9.32;;
58446;SDS011;44240;51.840;7.258;2023-12-14T11:55:38;19.30;;;10.38;;
58446;SDS011;44240;51.840;7.258;2023-12-14T11:58:06;18.55;;;9.93;;
58446;SDS011;44240;51.840;7.258;2023-12-14T12:00:34;22.58;;;10.50;;
58446;SDS011;44240;51.840;7.258;2023-12-14T12:03:07;19.75;;;10.30;;
58446;SDS011;44240;51.840;7.258;2023-12-14T12:08:06;17.27;;;10.38;;
58446;SDS011;44240;51.840;7.258;2023-12-14T12:10:33;19.60;;;11.10;;
58446;SDS011;44240;51.840;7.258;2023-12-14T12:13:03;19.38;;;10.55;;
58446;SDS011;44240;51.840;7.258;2023-12-14T12:15:37;19.15;;;10.98;;
58446;SDS011;44240;51.840;7.258;2023-12-14T12:18:08;18.05;;;10.35;;
58446;SDS011;44240;51.840;7.258;2023-12-14T12:20:35;18.25;;;9.80;;
58446;SDS011;44240;51.840;7.258;2023-12-14T12:23:02;18.42;;;9.93;;
58446;SDS011;44240;51.840;7.258;2023-12-14T12:25:30;20.15;;;11.13;;
58446;SDS011;44240;51.840;7.258;2023-12-14T12:27:58;21.20;;;11.25;;
58446;SDS011;44240;51.840;7.258;2023-12-14T12:30:25;21.83;;;11.35;;
58446;SDS011;44240;51.840;7.258;2023-12-14T12:32:52;19.75;;;10.30;;
58446;SDS011;44240;51.840;7.258;2023-12-14T12:35:19;17.75;;;9.88;;
58446;SDS011;44240;51.840;7.258;2023-12-14T12:37:46;18.25;;;10.30;;
58446;SDS011;44240;51.840;7.258;2023-12-14T12:40:23;19.20;;;10.82;;
58446;SDS011;44240;51.840;7.258;2023-12-14T12:42:52;19.90;;;10.90;;
58446;SDS011;44240;51.840;7.258;2023-12-14T12:45:19;20.67;;;12.13;;
58446;SDS011;44240;51.840;7.258;2023-12-14T12:47:52;18.27;;;11.13;;
58446;SDS011;44240;51.840;7.258;2023-12-14T12:50:19;19.90;;;10.95;;
58446;SDS011;44240;51.840;7.258;2023-12-14T12:52:46;20.10;;;9.80;;
58446;SDS011;44240;51.840;7.258;2023-12-14T12:55:15;23.35;;;12.20;;
58446;SDS011;44240;51.840;7.258;2023-12-14T12:57:42;21.60;;;11.43;;
58446;SDS011;44240;51.840;7.258;2023-12-14T13:00:09;21.52;;;11.88;;
58446;SDS011;44240;51.840;7.258;2023-12-14T13:02:40;21.98;;;11.35;;
58446;SDS011;44240;51.840;7.258;2023-12-14T13:05:08;20.17;;;10.55;;
58446;SDS011;44240;51.840;7.258;2023-12-14T13:07:40;21.27;;;11.43;;
58446;SDS011;44240;51.840;7.258;2023-12-14T13:10:10;23.17;;;11.10;;
58446;SDS011;44240;51.840;7.258;2023-12-14T13:12:54;18.95;;;11.63;;
58446;SDS011;44240;51.840;7.258;2023-12-14T13:15:22;19.90;;;11.50;;
58446;SDS011;44240;51.840;7.258;2023-12-14T13:17:53;20.85;;;11.30;;
58446;SDS011;44240;51.840;7.258;2023-12-14T13:20:20;21.77;;;11.15;;
58446;SDS011;44240;51.840;7.258;2023-12-14T13:22:47;20.77;;;11.07;;
58446;SDS011;44240;51.840;7.258;2023-12-14T13:25:14;18.38;;;9.60;;
58446;SDS011;44240;51.840;7.258;2023-12-14T13:27:41;19.77;;;10.55;;
58446;SDS011;44240;51.840;7.258;2023-12-14T13:30:09;20.80;;;10.27;;
58446;SDS011;44240;51.840;7.258;2023-12-14T13:32:37;18.35;;;9.95;;
58446;SDS011;44240;51.840;7.258;2023-12-14T13:35:04;18.02;;;9.60;;
58446;SDS011;44240;51.840;7.258;2023-12-14T13:37:32;19.30;;;9.63;;
58446;SDS011;44240;51.840;7.258;2023-12-14T13:39:59;20.60;;;10.50;;
58446;SDS011;44240;51.840;7.258;2023-12-14T13:42:26;21.05;;;11.88;;
58446;SDS011;44240;51.840;7.258;2023-12-14T13:44:53;20.00;;;10.25;;
58446;SDS011;44240;51.840;7.258;2023-12-14T13:47:20;19.05;;;10.38;;
58446;SDS011;44240;51.840;7.258;2023-12-14T13:49:47;20.77;;;10.25;;
58446;SDS011;44240;51.840;7.258;2023-12-14T13:52:13;18.70;;;10.18;;
58446;SDS011;44240;51.840;7.258;2023-12-14T13:54:40;20.00;;;10.60;;
58446;SDS011;44240;51.840;7.258;2023-12-14T13:57:07;22.52;;;11.77;;
58446;SDS011;44240;51.840;7.258;2023-12-14T13:59:34;23.48;;;11.73;;
58446;SDS011;44240;51.840;7.258;2023-12-14T14:02:01;22.27;;;11.02;;
58446;SDS011;44240;51.840;7.258;2023-12-14T14:04:27;20.17;;;11.30;;
58446;SDS011;44240;51.840;7.258;2023-12-14T14:06:54;21.55;;;11.95;;
58446;SDS011;44240;51.840;7.258;2023-12-14T14:09:22;20.98;;;11.38;;
58446;SDS011;44240;51.840;7.258;2023-12-14T14:11:49;19.83;;;10.45;;
58446;SDS011;44240;51.840;7.258;2023-12-14T14:14:17;21.35;;;10.80;;
58446;SDS011;44240;51.840;7.258;2023-12-14T14:16:45;21.20;;;11.85;;
58446;SDS011;44240;51.840;7.258;2023-12-14T14:19:12;19.15;;;10.07;;
58446;SDS011;44240;51.840;7.258;2023-12-14T14:21:38;21.45;;;11.40;;
58446;SDS011;44240;51.840;7.258;2023-12-14T14:24:05;19.83;;;10.43;;
58446;SDS011;44240;51.840;7.258;2023-12-14T14:26:32;21.42;;;10.73;;
58446;SDS011;44240;51.840;7.258;2023-12-14T14:28:59;22.65;;;10.95;;
58446;SDS011;44240;51.840;7.258;2023-12-14T14:31:28;22.98;;;11.20;;
58446;SDS011;44240;51.840;7.258;2023-12-14T14:33:59;21.75;;;11.27;;
58446;SDS011;44240;51.840;7.258;2023-12-14T14:36:27;21.00;;;10.77;;
58446;SDS011;44240;51.840;7.258;2023-12-14T14:38:54;20.08;;;10.90;;
58446;SDS011;44240;51.840;7.258;2023-12-14T14:41:23;20.45;;;10.65;;
58446;SDS011;44240;51.840;7.258;2023-12-14T14:43:50;20.17;;;10.77;;